createdAt,value
2023-05-06T00:00:56.512Z,88.14
2023-05-06T00:03:23.137Z,87.89
2023-05-06T00:05:49.597Z,88.37
2023-05-06T00:08:16.370Z,88.36
2023-05-06T00:10:42.999Z,88.29
2023-05-06T00:13:09.342Z,88.64
2023-05-06T00:15:36.301Z,88.59
2023-05-06T00:18:02.938Z,88.75
2023-05-06T00:20:29.513Z,88.68
2023-05-06T00:22:55.968Z,88.64
2023-05-06T00:25:23.466Z,88.90
2023-05-06T00:27:49.905Z,89.07
2023-05-06T00:30:16.240Z,89.31
2023-05-06T00:32:42.714Z,89.29
2023-05-06T00:35:09.577Z,89.32
2023-05-06T00:37:36.056Z,89.61
2023-05-06T00:40:03.489Z,89.65
2023-05-06T00:42:30.040Z,89.64
2023-05-06T00:44:56.392Z,89.68
2023-05-06T00:47:23.249Z,89.47
2023-05-06T00:49:50.706Z,89.29
2023-05-06T00:52:18.849Z,89.33
2023-05-06T00:54:45.441Z,89.60
2023-05-06T00:57:11.882Z,89.48
2023-05-06T00:59:39.054Z,89.85
2023-05-06T01:02:05.464Z,90.11
2023-05-06T01:04:32.143Z,90.11
2023-05-06T01:07:08.242Z,89.91
2023-05-06T01:10:01.233Z,90.24
2023-05-06T01:12:56.513Z,90.19
2023-05-06T01:15:36.438Z,90.20
2023-05-06T01:18:10.213Z,90.38
2023-05-06T01:20:38.398Z,90.46
2023-05-06T01:23:14.850Z,90.23
2023-05-06T01:25:41.914Z,90.16
2023-05-06T01:28:12.772Z,89.64
2023-05-06T01:30:49.882Z,89.76
2023-05-06T01:33:26.286Z,89.94
2023-05-06T01:36:08.366Z,89.76
2023-05-06T01:38:48.856Z,89.98
2023-05-06T01:41:16.995Z,89.33
2023-05-06T01:43:47.354Z,89.35
2023-05-06T01:46:17.859Z,89.33
2023-05-06T01:48:46.136Z,89.27
2023-05-06T01:51:12.919Z,88.79
2023-05-06T01:53:39.259Z,88.51
2023-05-06T01:56:05.864Z,88.15
2023-05-06T01:58:32.290Z,88.28
2023-05-06T02:00:58.657Z,88.23
2023-05-06T02:03:25.644Z,88.28
2023-05-06T02:05:52.182Z,88.33
2023-05-06T02:08:18.676Z,88.16
2023-05-06T02:10:45.168Z,87.93
2023-05-06T02:13:11.708Z,87.79
2023-05-06T02:15:38.119Z,87.75
2023-05-06T02:18:05.084Z,87.92
2023-05-06T02:20:31.433Z,87.88
2023-05-06T02:22:57.785Z,88.24
2023-05-06T02:25:24.105Z,88.13
2023-05-06T02:27:50.516Z,88.13
2023-05-06T02:30:16.933Z,88.13
2023-05-06T02:32:43.273Z,88.09
2023-05-06T02:35:09.892Z,88.37
2023-05-06T02:37:36.742Z,88.64
2023-05-06T02:40:03.077Z,88.63
2023-05-06T02:42:29.398Z,88.40
2023-05-06T02:44:55.901Z,87.90
2023-05-06T02:47:22.304Z,87.43
2023-05-06T02:49:48.655Z,87.30
2023-05-06T02:52:15.142Z,87.68
2023-05-06T02:54:41.489Z,87.76
2023-05-06T02:57:07.924Z,87.84
2023-05-06T02:59:35.425Z,88.18
2023-05-06T03:02:01.962Z,87.95
2023-05-06T03:04:28.279Z,88.17
2023-05-06T03:06:54.694Z,88.10
2023-05-06T03:09:21.548Z,88.29
2023-05-06T03:11:47.954Z,88.60
2023-05-06T03:14:14.284Z,88.78
2023-05-06T03:16:40.662Z,88.82
2023-05-06T03:19:07.020Z,88.99
2023-05-06T03:21:33.828Z,89.08
2023-05-06T03:24:00.197Z,89.10
2023-05-06T03:26:26.583Z,88.91
2023-05-06T03:28:52.950Z,88.74
2023-05-06T03:31:19.599Z,88.62
2023-05-06T03:33:45.948Z,88.33
2023-05-06T03:36:14.880Z,88.41
2023-05-06T03:38:41.343Z,88.43
2023-05-06T03:41:08.496Z,88.42
2023-05-06T03:43:34.926Z,88.34
2023-05-06T03:46:01.346Z,88.54
2023-05-06T03:48:27.714Z,88.33
2023-05-06T03:50:54.121Z,88.54
2023-05-06T03:53:20.577Z,88.49
2023-05-06T03:55:46.906Z,88.38
2023-05-06T03:58:13.281Z,88.10
2023-05-06T04:00:39.614Z,88.18
2023-05-06T04:03:06.006Z,88.06
2023-05-06T04:05:32.449Z,88.27
2023-05-06T04:07:58.792Z,88.36
2023-05-06T04:10:25.179Z,88.00
2023-05-06T04:12:52.294Z,88.47
2023-05-06T04:15:18.739Z,88.06
2023-05-06T04:17:45.201Z,88.30
2023-05-06T04:20:11.901Z,88.42
2023-05-06T04:22:38.572Z,88.31
2023-05-06T04:25:05.352Z,88.15
2023-05-06T04:27:32.169Z,88.24
2023-05-06T04:29:58.603Z,88.42
2023-05-06T04:32:27.604Z,88.34
2023-05-06T04:34:54.057Z,88.21
2023-05-06T04:37:21.051Z,88.32
2023-05-06T04:39:47.534Z,88.40
2023-05-06T04:42:14.784Z,88.43
2023-05-06T04:44:42.934Z,88.76
2023-05-06T04:47:09.574Z,88.79
2023-05-06T04:49:36.108Z,88.87
2023-05-06T04:52:02.477Z,89.06
2023-05-06T04:54:29.023Z,88.95
2023-05-06T04:56:55.712Z,89.07
2023-05-06T04:59:22.045Z,88.90
2023-05-06T05:01:48.682Z,89.25
2023-05-06T05:04:15.216Z,89.41
2023-05-06T05:06:41.629Z,89.46
2023-05-06T05:09:08.084Z,89.80
2023-05-06T05:11:37.624Z,89.85
2023-05-06T05:14:04.055Z,90.14
2023-05-06T05:16:30.476Z,90.22
2023-05-06T05:18:57.156Z,90.23
2023-05-06T05:21:23.479Z,90.50
2023-05-06T05:23:49.792Z,90.59
2023-05-06T05:26:16.188Z,91.09
2023-05-06T05:28:43.376Z,91.10
2023-05-06T05:31:10.608Z,91.06
2023-05-06T05:33:37.184Z,91.47
2023-05-06T05:36:04.183Z,91.27
2023-05-06T05:38:30.566Z,91.39
2023-05-06T05:40:57.121Z,91.43
2023-05-06T05:43:25.872Z,91.58
2023-05-06T05:45:52.316Z,91.60
2023-05-06T05:48:18.675Z,91.46
2023-05-06T05:50:45.856Z,91.58
2023-05-06T05:53:12.385Z,91.32
2023-05-06T05:55:38.714Z,91.63
2023-05-06T05:58:05.029Z,91.67
2023-05-06T06:00:31.644Z,91.52
2023-05-06T06:02:58.252Z,91.67
2023-05-06T06:05:24.662Z,91.87
2023-05-06T06:07:51.003Z,91.85
2023-05-06T06:10:17.393Z,91.96
2023-05-06T06:12:44.582Z,92.22
2023-05-06T06:15:11.712Z,92.45
2023-05-06T06:17:38.493Z,92.31
2023-05-06T06:20:05.881Z,92.48
2023-05-06T06:22:32.356Z,92.34
2023-05-06T06:24:58.756Z,92.10
2023-05-06T06:27:25.136Z,92.09
2023-05-06T06:29:51.477Z,92.58
2023-05-06T06:32:18.027Z,92.31
2023-05-06T06:34:44.335Z,92.40
2023-05-06T06:37:11.608Z,92.14
2023-05-06T06:39:38.190Z,92.17
2023-05-06T06:42:04.774Z,92.18
2023-05-06T06:44:31.076Z,92.46
2023-05-06T06:46:57.418Z,92.56
2023-05-06T06:49:23.809Z,92.22
2023-05-06T06:51:51.642Z,92.01
2023-05-06T06:54:18.054Z,92.07
2023-05-06T06:56:44.448Z,92.16
2023-05-06T06:59:10.887Z,92.27
2023-05-06T07:01:37.320Z,92.47
2023-05-06T07:04:05.370Z,92.30
2023-05-06T07:06:33.392Z,92.35
2023-05-06T07:08:59.748Z,92.37
2023-05-06T07:11:26.295Z,92.51
2023-05-06T07:13:52.605Z,92.32
2023-05-06T07:16:19.117Z,92.31
2023-05-06T07:18:45.598Z,91.82
2023-05-06T07:21:11.973Z,91.25
2023-05-06T07:23:38.357Z,88.92
2023-05-06T07:26:04.752Z,83.83
2023-05-06T07:28:31.091Z,80.27
2023-05-06T07:30:57.474Z,79.55
2023-05-06T07:33:23.802Z,79.70
2023-05-06T07:35:50.128Z,80.46
2023-05-06T07:38:16.475Z,81.46
2023-05-06T07:40:42.793Z,81.94
2023-05-06T07:43:09.592Z,82.38
2023-05-06T07:45:36.173Z,82.40
2023-05-06T07:48:02.574Z,83.63
2023-05-06T07:50:28.979Z,78.57
2023-05-06T07:52:55.303Z,77.09
2023-05-06T07:55:21.615Z,76.01
2023-05-06T07:57:49.086Z,75.10
2023-05-06T08:00:15.599Z,76.08
2023-05-06T08:02:44.460Z,76.95
2023-05-06T08:05:11.455Z,76.13
2023-05-06T08:07:39.871Z,77.25
2023-05-06T08:10:07.064Z,78.29
2023-05-06T08:12:35.840Z,77.15
2023-05-06T08:15:03.310Z,78.44
2023-05-06T08:17:29.754Z,77.42
2023-05-06T08:19:56.137Z,78.08
2023-05-06T08:22:22.476Z,78.31
2023-05-06T08:24:48.773Z,77.58
2023-05-06T08:27:15.302Z,76.52
2023-05-06T08:29:41.657Z,75.38
2023-05-06T08:32:08.007Z,76.41
2023-05-06T08:34:34.882Z,75.76
2023-05-06T08:37:02.005Z,76.07
2023-05-06T08:39:28.866Z,75.94
2023-05-06T08:41:57.714Z,75.36
2023-05-06T08:44:25.366Z,75.61
2023-05-06T08:46:51.869Z,76.67
2023-05-06T08:49:18.206Z,75.41
2023-05-06T08:51:45.415Z,75.99
2023-05-06T08:54:13.130Z,75.74
2023-05-06T08:56:47.259Z,75.59
2023-05-06T08:59:13.850Z,76.00
2023-05-06T09:01:40.778Z,75.61
2023-05-06T09:04:08.171Z,76.15
2023-05-06T09:06:34.514Z,75.79
2023-05-06T09:09:00.835Z,74.70
2023-05-06T09:11:32.210Z,76.18
2023-05-06T09:14:16.201Z,75.78
2023-05-06T09:16:47.226Z,75.11
2023-05-06T09:19:14.764Z,75.88
2023-05-06T09:21:43.441Z,74.12
2023-05-06T09:24:10.934Z,74.00
2023-05-06T09:26:38.825Z,73.38
2023-05-06T09:29:06.136Z,75.47
2023-05-06T09:31:33.151Z,72.90
2023-05-06T09:34:00.887Z,72.21
2023-05-06T09:36:28.257Z,73.40
2023-05-06T09:38:55.785Z,73.56
2023-05-06T09:41:27.428Z,72.86
2023-05-06T09:43:55.243Z,72.29
2023-05-06T09:46:23.032Z,72.42
2023-05-06T09:48:54.445Z,72.46
2023-05-06T09:51:21.395Z,70.47
2023-05-06T09:53:48.136Z,70.66
2023-05-06T09:56:15.677Z,71.23
2023-05-06T09:58:42.498Z,72.15
2023-05-06T10:01:17.118Z,68.59
2023-05-06T10:03:51.506Z,70.00
2023-05-06T10:06:19.139Z,70.65
2023-05-06T10:08:47.786Z,66.61
2023-05-06T10:11:15.100Z,67.48
2023-05-06T10:13:42.781Z,67.14
2023-05-06T10:16:10.792Z,67.44
2023-05-06T10:18:38.970Z,68.75
2023-05-06T10:21:09.808Z,68.34
2023-05-06T10:23:49.045Z,66.64
2023-05-06T10:26:16.975Z,67.81
2023-05-06T10:28:44.744Z,64.41
2023-05-06T10:31:14.991Z,66.89
2023-05-06T10:33:47.482Z,65.65
2023-05-06T10:36:20.000Z,63.66
2023-05-06T10:38:50.550Z,65.70
2023-05-06T10:41:17.843Z,65.56
2023-05-06T10:43:45.169Z,63.77
2023-05-06T10:46:16.509Z,62.99
2023-05-06T10:49:04.387Z,64.49
2023-05-06T10:51:35.042Z,63.17
2023-05-06T10:54:19.388Z,62.23
2023-05-06T10:56:48.708Z,61.57
2023-05-06T10:59:20.198Z,62.36
2023-05-06T11:01:55.185Z,61.91
2023-05-06T11:04:22.373Z,63.10
2023-05-06T11:06:50.546Z,62.31
2023-05-06T11:09:19.023Z,61.08
2023-05-06T11:11:51.829Z,59.77
2023-05-06T11:14:35.559Z,61.28
2023-05-06T11:17:06.969Z,60.55
2023-05-06T11:19:35.380Z,60.52
2023-05-06T11:22:03.890Z,60.76
2023-05-06T11:24:41.599Z,58.26
2023-05-06T11:27:09.418Z,61.40
2023-05-06T11:29:36.008Z,58.09
2023-05-06T11:32:03.772Z,58.60
2023-05-06T11:34:31.801Z,58.55
2023-05-06T11:37:06.408Z,58.45
2023-05-06T11:39:39.714Z,58.65
2023-05-06T11:42:08.620Z,56.14
2023-05-06T11:44:39.396Z,56.69
2023-05-06T11:47:07.836Z,57.31
2023-05-06T11:49:40.698Z,54.84
2023-05-06T11:52:11.956Z,54.88
2023-05-06T11:54:40.583Z,56.54
2023-05-06T11:57:07.756Z,55.77
2023-05-06T11:59:40.261Z,54.23
2023-05-06T12:02:12.570Z,54.93
2023-05-06T12:04:43.920Z,55.79
2023-05-06T12:07:14.981Z,52.93
2023-05-06T12:09:49.505Z,55.56
2023-05-06T12:12:19.153Z,52.97
2023-05-06T12:14:47.298Z,49.34
2023-05-06T12:17:14.617Z,51.64
2023-05-06T12:19:41.068Z,54.67
2023-05-06T12:22:21.697Z,53.95
2023-05-06T12:24:48.916Z,54.09
2023-05-06T12:27:30.930Z,53.01
2023-05-06T12:29:57.331Z,52.21
2023-05-06T12:32:23.734Z,52.61
2023-05-06T12:34:50.285Z,52.19
2023-05-06T12:37:30.553Z,50.83
2023-05-06T12:39:59.153Z,52.97
2023-05-06T12:42:34.115Z,50.41
2023-05-06T12:45:13.339Z,54.33
2023-05-06T12:47:39.793Z,54.39
2023-05-06T12:50:06.679Z,52.92
2023-05-06T12:52:33.306Z,54.64
2023-05-06T12:55:01.541Z,54.09
2023-05-06T12:57:27.894Z,53.87
2023-05-06T12:59:56.088Z,55.50
2023-05-06T13:02:22.664Z,56.90
2023-05-06T13:04:49.405Z,56.79
2023-05-06T13:07:15.828Z,55.18
2023-05-06T13:09:42.191Z,54.23
2023-05-06T13:12:08.555Z,54.34
2023-05-06T13:14:36.858Z,54.78
2023-05-06T13:17:06.722Z,52.20
2023-05-06T13:19:33.632Z,54.14
2023-05-06T13:22:01.165Z,51.81
2023-05-06T13:24:28.152Z,52.31
2023-05-06T13:26:56.246Z,51.89
2023-05-06T13:29:23.423Z,53.73
2023-05-06T13:31:49.846Z,54.25
2023-05-06T13:34:16.219Z,51.17
2023-05-06T13:36:43.670Z,53.49
2023-05-06T13:39:10.028Z,55.26
2023-05-06T13:41:36.373Z,51.33
2023-05-06T13:44:02.906Z,51.03
2023-05-06T13:46:29.268Z,49.24
2023-05-06T13:48:55.665Z,50.58
2023-05-06T13:51:22.025Z,48.88
2023-05-06T13:53:48.377Z,50.62
2023-05-06T13:56:14.711Z,50.81
2023-05-06T13:58:41.226Z,51.35
2023-05-06T14:01:07.625Z,50.58
2023-05-06T14:03:34.018Z,50.79
2023-05-06T14:06:01.183Z,49.66
2023-05-06T14:08:27.546Z,48.74
2023-05-06T14:10:53.856Z,50.95
2023-05-06T14:13:20.322Z,48.93
2023-05-06T14:15:47.029Z,49.55
2023-05-06T14:18:13.473Z,49.05
2023-05-06T14:20:39.803Z,49.19
2023-05-06T14:23:06.934Z,49.40
2023-05-06T14:25:33.333Z,48.92
2023-05-06T14:27:59.868Z,50.76
2023-05-06T14:30:26.336Z,51.18
2023-05-06T14:32:52.704Z,51.70
2023-05-06T14:35:19.124Z,51.06
2023-05-06T14:37:45.541Z,48.31
2023-05-06T14:40:12.108Z,47.82
2023-05-06T14:42:38.537Z,47.64
2023-05-06T14:45:06.047Z,47.48
2023-05-06T14:47:32.654Z,48.02
2023-05-06T14:49:59.136Z,48.87
2023-05-06T14:52:25.604Z,49.12
2023-05-06T14:54:51.996Z,48.30
2023-05-06T14:57:18.341Z,48.44
2023-05-06T14:59:44.683Z,49.27
2023-05-06T15:02:11.173Z,50.12
2023-05-06T15:04:37.545Z,49.42
2023-05-06T15:07:04.158Z,50.59
2023-05-06T15:09:30.954Z,50.23
2023-05-06T15:11:57.589Z,51.24
2023-05-06T15:14:24.077Z,51.57
2023-05-06T15:16:50.477Z,52.44
2023-05-06T15:19:16.840Z,52.22
2023-05-06T15:21:44.045Z,52.77
2023-05-06T15:24:10.362Z,51.55
2023-05-06T15:26:36.705Z,53.21
2023-05-06T15:29:03.336Z,53.07
2023-05-06T15:31:31.265Z,53.62
2023-05-06T15:34:00.327Z,54.64
2023-05-06T15:36:27.569Z,53.32
2023-05-06T15:39:00.370Z,53.09
2023-05-06T15:41:29.396Z,53.62
2023-05-06T15:44:00.287Z,53.79
2023-05-06T15:46:27.768Z,57.47
2023-05-06T15:49:15.656Z,52.17
2023-05-06T15:51:41.269Z,52.51
2023-05-06T15:54:08.111Z,55.73
2023-05-06T15:56:40.574Z,55.45
2023-05-06T15:59:08.253Z,52.48
2023-05-06T16:02:04.875Z,55.31
2023-05-06T16:04:21.486Z,54.80
2023-05-06T16:06:48.070Z,53.84
2023-05-06T16:09:14.431Z,52.89
2023-05-06T16:11:41.180Z,54.52
2023-05-06T16:14:07.486Z,55.64
2023-05-06T16:16:33.836Z,54.31
2023-05-06T16:19:00.303Z,55.42
2023-05-06T16:21:27.045Z,53.57
2023-05-06T16:23:53.570Z,52.48
2023-05-06T16:26:19.918Z,53.97
2023-05-06T16:28:46.364Z,55.07
2023-05-06T16:31:12.727Z,56.36
2023-05-06T16:33:39.163Z,56.70
2023-05-06T16:36:06.004Z,54.43
2023-05-06T16:38:32.377Z,56.64
2023-05-06T16:40:59.114Z,56.61
2023-05-06T16:43:25.623Z,57.03
2023-05-06T16:45:52.192Z,57.67
2023-05-06T16:48:18.712Z,54.68
2023-05-06T16:50:45.536Z,56.47
2023-05-06T16:53:12.116Z,56.72
2023-05-06T16:55:38.578Z,57.73
2023-05-06T16:58:05.007Z,57.81
2023-05-06T17:00:31.929Z,60.75
2023-05-06T17:02:58.576Z,61.63
2023-05-06T17:05:25.446Z,61.56
2023-05-06T17:07:52.582Z,60.58
2023-05-06T17:10:19.048Z,62.13
2023-05-06T17:12:45.394Z,57.58
2023-05-06T17:15:12.142Z,62.80
2023-05-06T17:17:39.808Z,61.93
2023-05-06T17:20:07.195Z,62.17
2023-05-06T17:22:33.661Z,62.74
2023-05-06T17:25:00.035Z,65.43
2023-05-06T17:27:26.400Z,64.04
2023-05-06T17:29:52.710Z,62.90
2023-05-06T17:32:19.719Z,61.95
2023-05-06T17:34:46.419Z,62.30
2023-05-06T17:37:12.800Z,62.10
2023-05-06T17:39:39.382Z,63.36
2023-05-06T17:42:05.723Z,63.81
2023-05-06T17:44:32.972Z,63.83
2023-05-06T17:46:59.776Z,65.36
2023-05-06T17:49:26.273Z,66.17
2023-05-06T17:51:52.857Z,67.61
2023-05-06T17:54:19.326Z,68.67
2023-05-06T17:56:50.292Z,69.65
2023-05-06T17:59:21.028Z,70.62
2023-05-06T18:01:47.910Z,71.33
2023-05-06T18:04:14.507Z,72.80
2023-05-06T18:06:42.048Z,73.17
2023-05-06T18:09:10.228Z,73.99
2023-05-06T18:11:37.960Z,74.80
2023-05-06T18:14:05.018Z,75.33
2023-05-06T18:16:31.984Z,76.08
2023-05-06T18:19:00.657Z,76.40
2023-05-06T18:21:27.678Z,76.37
2023-05-06T18:24:01.877Z,76.96
2023-05-06T18:26:44.106Z,77.68
2023-05-06T18:29:11.826Z,78.02
2023-05-06T18:31:38.263Z,78.19
2023-05-06T18:34:04.667Z,78.83
2023-05-06T18:36:31.107Z,79.52
2023-05-06T18:38:57.466Z,79.35
2023-05-06T18:41:24.934Z,79.51
2023-05-06T18:43:51.313Z,79.62
2023-05-06T18:46:17.778Z,79.95
2023-05-06T18:48:44.890Z,80.31
2023-05-06T18:51:16.914Z,80.56
2023-05-06T18:53:44.520Z,80.64
2023-05-06T18:56:11.214Z,81.01
2023-05-06T18:58:39.223Z,81.33
2023-05-06T19:01:10.611Z,81.47
2023-05-06T19:03:38.179Z,81.45
2023-05-06T19:06:08.969Z,81.41
2023-05-06T19:08:37.180Z,81.13
2023-05-06T19:11:03.607Z,81.45
2023-05-06T19:13:30.838Z,82.04
2023-05-06T19:15:57.195Z,82.36
2023-05-06T19:18:23.604Z,82.40
2023-05-06T19:20:49.931Z,83.02
2023-05-06T19:23:16.353Z,83.10
2023-05-06T19:25:42.684Z,83.73
2023-05-06T19:28:09.551Z,83.78
2023-05-06T19:30:36.321Z,83.22
2023-05-06T19:33:03.545Z,83.47
2023-05-06T19:35:29.962Z,83.50
2023-05-06T19:37:56.592Z,83.14
2023-05-06T19:40:22.990Z,83.65
2023-05-06T19:42:49.611Z,83.84
2023-05-06T19:45:17.537Z,84.11
2023-05-06T19:47:45.596Z,83.96
2023-05-06T19:50:12.869Z,84.64
2023-05-06T19:52:39.514Z,84.47
2023-05-06T19:55:06.418Z,84.63
2023-05-06T19:57:33.591Z,84.81
2023-05-06T20:00:00.059Z,84.83
2023-05-06T20:02:26.587Z,84.64
2023-05-06T20:04:52.962Z,84.85
2023-05-06T20:07:20.976Z,85.24
2023-05-06T20:09:47.502Z,85.57
2023-05-06T20:12:13.914Z,85.62
2023-05-06T20:14:40.287Z,86.16
2023-05-06T20:17:06.628Z,86.17
2023-05-06T20:19:33.002Z,85.89
2023-05-06T20:22:00.245Z,85.82
2023-05-06T20:24:29.267Z,85.74
2023-05-06T20:26:57.812Z,85.79
2023-05-06T20:29:24.607Z,85.86
2023-05-06T20:31:51.027Z,86.25
2023-05-06T20:34:17.506Z,86.51
2023-05-06T20:36:44.043Z,86.52
2023-05-06T20:39:11.776Z,86.69
2023-05-06T20:41:38.292Z,86.71
2023-05-06T20:44:04.957Z,86.92
2023-05-06T20:46:32.823Z,86.90
2023-05-06T20:48:59.285Z,86.98
2023-05-06T20:51:27.830Z,86.75
2023-05-06T20:53:58.841Z,86.79
2023-05-06T20:56:26.181Z,86.77
2023-05-06T20:58:53.878Z,87.20
2023-05-06T21:01:22.850Z,86.94
2023-05-06T21:03:50.092Z,87.45
2023-05-06T21:06:17.604Z,87.58
2023-05-06T21:08:44.824Z,87.71
2023-05-06T21:11:11.172Z,87.72
2023-05-06T21:13:37.758Z,87.68
2023-05-06T21:16:04.553Z,87.71
2023-05-06T21:18:31.016Z,87.91
2023-05-06T21:20:57.707Z,88.30
2023-05-06T21:23:24.048Z,87.81
2023-05-06T21:25:50.369Z,88.10
2023-05-06T21:28:16.719Z,88.40
2023-05-06T21:30:44.159Z,88.29
2023-05-06T21:33:11.151Z,88.24
2023-05-06T21:35:37.802Z,88.45
2023-05-06T21:38:04.168Z,87.90
2023-05-06T21:40:30.475Z,88.13
2023-05-06T21:42:56.976Z,88.25
2023-05-06T21:45:23.299Z,88.46
2023-05-06T21:47:49.846Z,88.82
2023-05-06T21:50:16.322Z,88.93
2023-05-06T21:52:42.715Z,88.84
2023-05-06T21:55:09.498Z,89.14
2023-05-06T21:57:36.113Z,89.08
2023-05-06T22:00:08.445Z,89.49
2023-05-06T22:02:34.850Z,89.11
2023-05-06T22:05:01.253Z,89.21
2023-05-06T22:07:27.779Z,89.48
2023-05-06T22:09:54.103Z,89.46
2023-05-06T22:12:20.499Z,89.75
2023-05-06T22:14:47.100Z,89.79
2023-05-06T22:17:13.451Z,89.56
2023-05-06T22:19:40.792Z,89.59
2023-05-06T22:22:07.727Z,89.58
2023-05-06T22:24:34.275Z,89.46
2023-05-06T22:27:01.632Z,89.20
2023-05-06T22:29:28.163Z,89.66
2023-05-06T22:31:54.632Z,89.47
2023-05-06T22:34:21.019Z,89.80
2023-05-06T22:36:47.656Z,89.53
2023-05-06T22:39:13.993Z,89.46
2023-05-06T22:41:40.451Z,89.59
2023-05-06T22:44:06.766Z,89.56
2023-05-06T22:46:33.256Z,89.65
2023-05-06T22:49:00.085Z,89.47
2023-05-06T22:51:26.613Z,89.22
2023-05-06T22:53:52.993Z,89.17
2023-05-06T22:56:19.955Z,89.62
2023-05-06T22:58:46.366Z,89.78
2023-05-06T23:01:12.789Z,89.52
2023-05-06T23:03:39.218Z,89.69
2023-05-06T23:06:06.026Z,89.85
2023-05-06T23:08:32.764Z,89.76
2023-05-06T23:10:59.216Z,89.57
2023-05-06T23:13:26.365Z,89.78
2023-05-06T23:15:53.096Z,89.85
2023-05-06T23:18:20.566Z,89.86
2023-05-06T23:20:46.914Z,90.10
2023-05-06T23:23:13.304Z,90.32
2023-05-06T23:25:39.678Z,90.26
2023-05-06T23:28:06.012Z,90.14
2023-05-06T23:30:32.376Z,90.31
2023-05-06T23:32:58.786Z,90.16
2023-05-06T23:35:25.834Z,90.31
2023-05-06T23:37:52.168Z,89.94
2023-05-06T23:40:18.510Z,90.06
2023-05-06T23:42:44.845Z,89.97
2023-05-06T23:45:12.030Z,89.70
2023-05-06T23:47:38.642Z,89.67
2023-05-06T23:50:05.580Z,89.93
2023-05-06T23:52:31.986Z,89.99
2023-05-06T23:54:58.364Z,89.88
2023-05-06T23:57:24.771Z,89.94
2023-05-06T23:59:51.092Z,89.97
